sensor_id;sensor_type;location;lat;lon;timestamp;temperature;humidity
4215;DHT22;2121;48.062;7.850;2024-03-06T00:01:53;6.50;99.90
4215;DHT22;2121;48.062;7.850;2024-03-06T00:04:19;6.40;99.90
4215;DHT22;2121;48.062;7.850;2024-03-06T00:06:45;6.50;99.90
4215;DHT22;2121;48.062;7.850;2024-03-06T00:09:10;6.50;99.90
4215;DHT22;2121;48.062;7.850;2024-03-06T00:11:37;6.40;99.90
4215;DHT22;2121;48.062;7.850;2024-03-06T00:14:03;6.40;99.90
4215;DHT22;2121;48.062;7.850;2024-03-06T00:16:33;6.30;99.90
4215;DHT22;2121;48.062;7.850;2024-03-06T00:18:59;6.20;99.90
4215;DHT22;2121;48.062;7.850;2024-03-06T00:21:25;6.10;99.90
4215;DHT22;2121;48.062;7.850;2024-03-06T00:23:50;6.00;99.90
4215;DHT22;2121;48.062;7.850;2024-03-06T00:26:16;6.00;99.90
4215;DHT22;2121;48.062;7.850;2024-03-06T00:28:42;6.10;99.90
4215;DHT22;2121;48.062;7.850;2024-03-06T00:31:09;6.10;99.90
4215;DHT22;2121;48.062;7.850;2024-03-06T00:33:35;6.10;99.90
4215;DHT22;2121;48.062;7.850;2024-03-06T00:36:00;6.10;99.90
4215;DHT22;2121;48.062;7.850;2024-03-06T00:38:26;6.00;99.90
4215;DHT22;2121;48.062;7.850;2024-03-06T00:40:51;6.00;99.90
4215;DHT22;2121;48.062;7.850;2024-03-06T00:43:17;6.00;99.90
4215;DHT22;2121;48.062;7.850;2024-03-06T00:45:43;6.00;99.90
4215;DHT22;2121;48.062;7.850;2024-03-06T00:48:09;5.80;99.90
4215;DHT22;2121;48.062;7.850;2024-03-06T00:50:34;5.80;99.90
4215;DHT22;2121;48.062;7.850;2024-03-06T00:53:00;5.90;99.90
4215;DHT22;2121;48.062;7.850;2024-03-06T00:55:26;6.00;99.90
4215;DHT22;2121;48.062;7.850;2024-03-06T00:57:52;5.90;99.90
4215;DHT22;2121;48.062;7.850;2024-03-06T01:00:19;5.90;99.90
4215;DHT22;2121;48.062;7.850;2024-03-06T01:02:45;5.90;99.90
4215;DHT22;2121;48.062;7.850;2024-03-06T01:05:10;5.80;99.90
4215;DHT22;2121;48.062;7.850;2024-03-06T01:07:39;5.90;99.90
4215;DHT22;2121;48.062;7.850;2024-03-06T01:10:06;5.90;99.90
4215;DHT22;2121;48.062;7.850;2024-03-06T01:12:33;5.80;99.90
4215;DHT22;2121;48.062;7.850;2024-03-06T01:14:59;5.80;99.90
4215;DHT22;2121;48.062;7.850;2024-03-06T01:17:26;5.80;99.90
4215;DHT22;2121;48.062;7.850;2024-03-06T01:19:51;5.90;99.90
4215;DHT22;2121;48.062;7.850;2024-03-06T01:22:18;5.80;99.90
4215;DHT22;2121;48.062;7.850;2024-03-06T01:24:44;5.70;99.90
4215;DHT22;2121;48.062;7.850;2024-03-06T01:27:10;5.60;99.90
4215;DHT22;2121;48.062;7.850;2024-03-06T01:29:36;5.70;99.90
4215;DHT22;2121;48.062;7.850;2024-03-06T01:32:02;5.80;99.90
4215;DHT22;2121;48.062;7.850;2024-03-06T01:34:27;5.80;99.90
4215;DHT22;2121;48.062;7.850;2024-03-06T01:36:53;5.90;99.90
4215;DHT22;2121;48.062;7.850;2024-03-06T01:39:19;5.90;99.90
4215;DHT22;2121;48.062;7.850;2024-03-06T01:41:50;5.90;99.90
4215;DHT22;2121;48.062;7.850;2024-03-06T01:44:17;5.90;99.90
4215;DHT22;2121;48.062;7.850;2024-03-06T01:46:44;5.80;99.90
4215;DHT22;2121;48.062;7.850;2024-03-06T01:49:11;5.80;99.90
4215;DHT22;2121;48.062;7.850;2024-03-06T01:51:39;5.70;99.90
4215;DHT22;2121;48.062;7.850;2024-03-06T01:54:06;5.70;99.90
4215;DHT22;2121;48.062;7.850;2024-03-06T01:56:33;5.70;99.90
4215;DHT22;2121;48.062;7.850;2024-03-06T01:59:00;5.60;99.90
4215;DHT22;2121;48.062;7.850;2024-03-06T02:01:26;5.50;99.90
4215;DHT22;2121;48.062;7.850;2024-03-06T02:03:52;5.40;99.90
4215;DHT22;2121;48.062;7.850;2024-03-06T02:06:19;5.40;99.90
4215;DHT22;2121;48.062;7.850;2024-03-06T02:08:47;5.40;99.90
4215;DHT22;2121;48.062;7.850;2024-03-06T02:11:13;5.40;99.90
4215;DHT22;2121;48.062;7.850;2024-03-06T02:13:39;5.50;99.90
4215;DHT22;2121;48.062;7.850;2024-03-06T02:16:06;5.50;99.90
4215;DHT22;2121;48.062;7.850;2024-03-06T02:18:31;5.60;99.90
4215;DHT22;2121;48.062;7.850;2024-03-06T02:20:57;5.60;99.90
4215;DHT22;2121;48.062;7.850;2024-03-06T02:23:23;5.70;99.90
4215;DHT22;2121;48.062;7.850;2024-03-06T02:25:49;5.70;99.90
4215;DHT22;2121;48.062;7.850;2024-03-06T02:28:15;5.70;99.90
4215;DHT22;2121;48.062;7.850;2024-03-06T02:30:42;5.70;99.90
4215;DHT22;2121;48.062;7.850;2024-03-06T02:33:08;5.70;99.90
4215;DHT22;2121;48.062;7.850;2024-03-06T02:35:35;5.80;99.90
4215;DHT22;2121;48.062;7.850;2024-03-06T02:38:03;5.70;99.90
4215;DHT22;2121;48.062;7.850;2024-03-06T02:40:30;5.80;99.90
4215;DHT22;2121;48.062;7.850;2024-03-06T02:42:57;5.80;99.90
4215;DHT22;2121;48.062;7.850;2024-03-06T02:45:22;5.70;99.90
4215;DHT22;2121;48.062;7.850;2024-03-06T02:47:51;5.60;99.90
4215;DHT22;2121;48.062;7.850;2024-03-06T02:50:17;5.70;99.90
4215;DHT22;2121;48.062;7.850;2024-03-06T02:52:42;5.70;99.90
4215;DHT22;2121;48.062;7.850;2024-03-06T02:55:08;5.80;99.90
4215;DHT22;2121;48.062;7.850;2024-03-06T02:57:34;5.90;99.90
4215;DHT22;2121;48.062;7.850;2024-03-06T03:00:00;5.70;99.90
4215;DHT22;2121;48.062;7.850;2024-03-06T03:02:25;5.70;99.90
4215;DHT22;2121;48.062;7.850;2024-03-06T03:04:51;5.70;99.90
4215;DHT22;2121;48.062;7.850;2024-03-06T03:07:18;5.80;99.90
4215;DHT22;2121;48.062;7.850;2024-03-06T03:09:47;5.80;99.90
4215;DHT22;2121;48.062;7.850;2024-03-06T03:12:13;5.80;99.90
4215;DHT22;2121;48.062;7.850;2024-03-06T03:14:42;5.80;99.90
4215;DHT22;2121;48.062;7.850;2024-03-06T03:17:08;5.80;99.90
4215;DHT22;2121;48.062;7.850;2024-03-06T03:19:34;5.90;99.90
4215;DHT22;2121;48.062;7.850;2024-03-06T03:22:00;5.80;99.90
4215;DHT22;2121;48.062;7.850;2024-03-06T03:24:26;5.90;99.90
4215;DHT22;2121;48.062;7.850;2024-03-06T03:26:52;5.90;99.90
4215;DHT22;2121;48.062;7.850;2024-03-06T03:29:18;5.80;99.90
4215;DHT22;2121;48.062;7.850;2024-03-06T03:31:44;5.80;99.90
4215;DHT22;2121;48.062;7.850;2024-03-06T03:34:10;5.70;99.90
4215;DHT22;2121;48.062;7.850;2024-03-06T03:36:42;5.80;99.90
4215;DHT22;2121;48.062;7.850;2024-03-06T03:39:11;5.80;99.90
4215;DHT22;2121;48.062;7.850;2024-03-06T03:41:47;5.70;99.90
4215;DHT22;2121;48.062;7.850;2024-03-06T03:44:14;5.70;99.90
4215;DHT22;2121;48.062;7.850;2024-03-06T03:46:46;5.70;99.90
4215;DHT22;2121;48.062;7.850;2024-03-06T03:49:12;5.70;99.90
4215;DHT22;2121;48.062;7.850;2024-03-06T03:51:39;5.70;99.90
4215;DHT22;2121;48.062;7.850;2024-03-06T03:54:05;5.70;99.90
4215;DHT22;2121;48.062;7.850;2024-03-06T03:56:31;5.80;99.90
4215;DHT22;2121;48.062;7.850;2024-03-06T03:58:58;5.90;99.90
4215;DHT22;2121;48.062;7.850;2024-03-06T04:01:24;5.80;99.90
4215;DHT22;2121;48.062;7.850;2024-03-06T04:03:51;5.80;99.90
4215;DHT22;2121;48.062;7.850;2024-03-06T04:06:17;5.90;99.90
4215;DHT22;2121;48.062;7.850;2024-03-06T04:08:43;5.80;99.90
4215;DHT22;2121;48.062;7.850;2024-03-06T04:11:08;5.80;99.90
4215;DHT22;2121;48.062;7.850;2024-03-06T04:13:37;5.80;99.90
4215;DHT22;2121;48.062;7.850;2024-03-06T04:16:04;5.80;99.90
4215;DHT22;2121;48.062;7.850;2024-03-06T04:18:31;5.80;99.90
4215;DHT22;2121;48.062;7.850;2024-03-06T04:21:04;5.80;99.90
4215;DHT22;2121;48.062;7.850;2024-03-06T04:23:31;5.80;99.90
4215;DHT22;2121;48.062;7.850;2024-03-06T04:25:57;5.70;99.90
4215;DHT22;2121;48.062;7.850;2024-03-06T04:28:23;5.50;99.90
4215;DHT22;2121;48.062;7.850;2024-03-06T04:30:48;5.70;99.90
4215;DHT22;2121;48.062;7.850;2024-03-06T04:33:14;5.70;99.90
4215;DHT22;2121;48.062;7.850;2024-03-06T04:35:41;5.70;99.90
4215;DHT22;2121;48.062;7.850;2024-03-06T04:38:07;5.60;99.90
4215;DHT22;2121;48.062;7.850;2024-03-06T04:40:33;5.70;99.90
4215;DHT22;2121;48.062;7.850;2024-03-06T04:43:00;5.80;99.90
4215;DHT22;2121;48.062;7.850;2024-03-06T04:45:26;5.70;99.90
4215;DHT22;2121;48.062;7.850;2024-03-06T04:47:53;5.60;99.90
4215;DHT22;2121;48.062;7.850;2024-03-06T04:50:19;5.50;99.90
4215;DHT22;2121;48.062;7.850;2024-03-06T04:52:44;5.50;99.90
4215;DHT22;2121;48.062;7.850;2024-03-06T04:55:11;5.50;99.90
4215;DHT22;2121;48.062;7.850;2024-03-06T04:57:38;5.60;99.90
4215;DHT22;2121;48.062;7.850;2024-03-06T05:00:06;5.70;99.90
4215;DHT22;2121;48.062;7.850;2024-03-06T05:02:35;5.50;99.90
4215;DHT22;2121;48.062;7.850;2024-03-06T05:05:03;5.50;99.90
4215;DHT22;2121;48.062;7.850;2024-03-06T05:07:30;5.50;99.90
4215;DHT22;2121;48.062;7.850;2024-03-06T05:09:57;5.60;99.90
4215;DHT22;2121;48.062;7.850;2024-03-06T05:12:24;5.60;99.90
4215;DHT22;2121;48.062;7.850;2024-03-06T05:14:54;5.70;99.90
4215;DHT22;2121;48.062;7.850;2024-03-06T05:17:20;5.70;99.90
4215;DHT22;2121;48.062;7.850;2024-03-06T05:19:47;5.60;99.90
4215;DHT22;2121;48.062;7.850;2024-03-06T05:22:14;5.60;99.90
4215;DHT22;2121;48.062;7.850;2024-03-06T05:24:41;5.50;99.90
4215;DHT22;2121;48.062;7.850;2024-03-06T05:27:10;5.50;99.90
4215;DHT22;2121;48.062;7.850;2024-03-06T05:29:42;5.50;99.90
4215;DHT22;2121;48.062;7.850;2024-03-06T05:32:08;5.50;99.90
4215;DHT22;2121;48.062;7.850;2024-03-06T05:34:34;5.50;99.90
4215;DHT22;2121;48.062;7.850;2024-03-06T05:37:00;5.50;99.90
4215;DHT22;2121;48.062;7.850;2024-03-06T05:39:29;5.50;99.90
4215;DHT22;2121;48.062;7.850;2024-03-06T05:41:55;5.50;99.90
4215;DHT22;2121;48.062;7.850;2024-03-06T05:44:21;5.50;99.90
4215;DHT22;2121;48.062;7.850;2024-03-06T05:46:47;5.60;99.90
4215;DHT22;2121;48.062;7.850;2024-03-06T05:49:13;5.60;99.90
4215;DHT22;2121;48.062;7.850;2024-03-06T05:51:39;5.60;99.90
4215;DHT22;2121;48.062;7.850;2024-03-06T05:54:05;5.50;99.90
4215;DHT22;2121;48.062;7.850;2024-03-06T05:56:34;5.50;99.90
4215;DHT22;2121;48.062;7.850;2024-03-06T05:59:00;5.60;99.90
4215;DHT22;2121;48.062;7.850;2024-03-06T06:01:30;5.60;99.90
4215;DHT22;2121;48.062;7.850;2024-03-06T06:03:56;5.60;99.90
4215;DHT22;2121;48.062;7.850;2024-03-06T06:06:22;5.60;99.90
4215;DHT22;2121;48.062;7.850;2024-03-06T06:08:48;5.70;99.90
4215;DHT22;2121;48.062;7.850;2024-03-06T06:11:13;5.60;99.90
4215;DHT22;2121;48.062;7.850;2024-03-06T06:13:39;5.60;99.90
4215;DHT22;2121;48.062;7.850;2024-03-06T06:16:05;5.70;99.90
4215;DHT22;2121;48.062;7.850;2024-03-06T06:18:31;5.70;99.90
4215;DHT22;2121;48.062;7.850;2024-03-06T06:20:58;5.80;99.90
4215;DHT22;2121;48.062;7.850;2024-03-06T06:23:24;5.80;99.90
4215;DHT22;2121;48.062;7.850;2024-03-06T06:25:51;5.90;99.90
4215;DHT22;2121;48.062;7.850;2024-03-06T06:28:17;5.90;99.90
4215;DHT22;2121;48.062;7.850;2024-03-06T06:30:43;6.00;99.90
4215;DHT22;2121;48.062;7.850;2024-03-06T06:33:09;6.00;99.90
4215;DHT22;2121;48.062;7.850;2024-03-06T06:35:35;6.00;99.90
4215;DHT22;2121;48.062;7.850;2024-03-06T06:38:01;5.90;99.90
4215;DHT22;2121;48.062;7.850;2024-03-06T06:40:27;6.00;99.90
4215;DHT22;2121;48.062;7.850;2024-03-06T06:42:53;6.00;99.90
4215;DHT22;2121;48.062;7.850;2024-03-06T06:45:20;6.00;99.90
4215;DHT22;2121;48.062;7.850;2024-03-06T06:47:49;6.10;99.90
4215;DHT22;2121;48.062;7.850;2024-03-06T06:50:16;6.00;99.90
4215;DHT22;2121;48.062;7.850;2024-03-06T06:52:42;6.10;99.90
4215;DHT22;2121;48.062;7.850;2024-03-06T06:55:08;6.10;99.90
4215;DHT22;2121;48.062;7.850;2024-03-06T06:57:37;6.10;99.90
4215;DHT22;2121;48.062;7.850;2024-03-06T07:00:04;6.00;99.90
4215;DHT22;2121;48.062;7.850;2024-03-06T07:02:45;5.90;99.90
4215;DHT22;2121;48.062;7.850;2024-03-06T07:05:11;5.80;99.90
4215;DHT22;2121;48.062;7.850;2024-03-06T07:07:37;5.80;99.90
4215;DHT22;2121;48.062;7.850;2024-03-06T07:10:04;5.80;99.90
4215;DHT22;2121;48.062;7.850;2024-03-06T07:12:31;5.90;99.90
4215;DHT22;2121;48.062;7.850;2024-03-06T07:14:58;5.80;99.90
4215;DHT22;2121;48.062;7.850;2024-03-06T07:17:25;5.80;99.90
4215;DHT22;2121;48.062;7.850;2024-03-06T07:19:50;5.80;99.90
4215;DHT22;2121;48.062;7.850;2024-03-06T07:22:18;5.80;99.90
4215;DHT22;2121;48.062;7.850;2024-03-06T07:24:44;5.80;99.90
4215;DHT22;2121;48.062;7.850;2024-03-06T07:27:10;5.80;99.90
4215;DHT22;2121;48.062;7.850;2024-03-06T07:29:37;5.80;99.90
4215;DHT22;2121;48.062;7.850;2024-03-06T07:32:03;5.90;99.90
4215;DHT22;2121;48.062;7.850;2024-03-06T07:34:30;5.90;99.90
4215;DHT22;2121;48.062;7.850;2024-03-06T07:36:57;5.90;99.90
4215;DHT22;2121;48.062;7.850;2024-03-06T07:39:25;5.80;99.90
4215;DHT22;2121;48.062;7.850;2024-03-06T07:41:51;5.80;99.90
4215;DHT22;2121;48.062;7.850;2024-03-06T07:44:17;5.80;99.90
4215;DHT22;2121;48.062;7.850;2024-03-06T07:46:42;5.80;99.90
4215;DHT22;2121;48.062;7.850;2024-03-06T07:49:08;5.90;99.90
4215;DHT22;2121;48.062;7.850;2024-03-06T07:51:34;5.90;99.90
4215;DHT22;2121;48.062;7.850;2024-03-06T07:54:01;5.90;99.90
4215;DHT22;2121;48.062;7.850;2024-03-06T07:56:29;5.90;99.90
4215;DHT22;2121;48.062;7.850;2024-03-06T07:58:56;5.90;99.90
4215;DHT22;2121;48.062;7.850;2024-03-06T08:01:22;5.90;99.90
4215;DHT22;2121;48.062;7.850;2024-03-06T08:03:48;6.00;99.90
4215;DHT22;2121;48.062;7.850;2024-03-06T08:06:14;6.00;99.90
4215;DHT22;2121;48.062;7.850;2024-03-06T08:08:43;6.00;99.90
4215;DHT22;2121;48.062;7.850;2024-03-06T08:11:13;6.00;99.90
4215;DHT22;2121;48.062;7.850;2024-03-06T08:13:39;6.00;99.90
4215;DHT22;2121;48.062;7.850;2024-03-06T08:16:06;6.00;99.90
4215;DHT22;2121;48.062;7.850;2024-03-06T08:18:33;6.10;99.90
4215;DHT22;2121;48.062;7.850;2024-03-06T08:21:00;6.10;99.90
4215;DHT22;2121;48.062;7.850;2024-03-06T08:23:27;6.10;99.90
4215;DHT22;2121;48.062;7.850;2024-03-06T08:25:52;6.20;99.90
4215;DHT22;2121;48.062;7.850;2024-03-06T08:28:18;6.20;99.90
4215;DHT22;2121;48.062;7.850;2024-03-06T08:30:44;6.10;99.90
4215;DHT22;2121;48.062;7.850;2024-03-06T08:33:10;6.20;99.90
4215;DHT22;2121;48.062;7.850;2024-03-06T08:35:37;6.10;99.90
4215;DHT22;2121;48.062;7.850;2024-03-06T08:38:03;5.80;99.90
4215;DHT22;2121;48.062;7.850;2024-03-06T08:40:29;6.20;99.90
4215;DHT22;2121;48.062;7.850;2024-03-06T08:42:55;6.20;99.90
4215;DHT22;2121;48.062;7.850;2024-03-06T08:45:21;6.30;99.90
4215;DHT22;2121;48.062;7.850;2024-03-06T08:47:49;6.40;99.90
4215;DHT22;2121;48.062;7.850;2024-03-06T08:50:15;6.30;99.90
4215;DHT22;2121;48.062;7.850;2024-03-06T08:52:41;6.30;99.90
4215;DHT22;2121;48.062;7.850;2024-03-06T08:55:08;6.30;99.90
4215;DHT22;2121;48.062;7.850;2024-03-06T08:57:37;6.30;99.90
4215;DHT22;2121;48.062;7.850;2024-03-06T09:00:06;6.30;99.90
4215;DHT22;2121;48.062;7.850;2024-03-06T09:02:36;6.30;99.90
4215;DHT22;2121;48.062;7.850;2024-03-06T09:05:05;6.40;99.90
4215;DHT22;2121;48.062;7.850;2024-03-06T09:07:36;6.50;99.90
4215;DHT22;2121;48.062;7.850;2024-03-06T09:10:10;6.70;99.90
4215;DHT22;2121;48.062;7.850;2024-03-06T09:12:36;6.70;99.90
4215;DHT22;2121;48.062;7.850;2024-03-06T09:15:03;6.80;99.90
4215;DHT22;2121;48.062;7.850;2024-03-06T09:17:30;6.90;99.90
4215;DHT22;2121;48.062;7.850;2024-03-06T09:19:56;7.00;99.90
4215;DHT22;2121;48.062;7.850;2024-03-06T09:22:22;7.20;99.90
4215;DHT22;2121;48.062;7.850;2024-03-06T09:24:48;7.40;99.90
4215;DHT22;2121;48.062;7.850;2024-03-06T09:27:14;7.40;99.90
4215;DHT22;2121;48.062;7.850;2024-03-06T09:29:41;7.50;99.90
4215;DHT22;2121;48.062;7.850;2024-03-06T09:32:08;7.70;99.90
4215;DHT22;2121;48.062;7.850;2024-03-06T09:34:33;7.80;99.90
4215;DHT22;2121;48.062;7.850;2024-03-06T09:36:59;7.80;99.90
4215;DHT22;2121;48.062;7.850;2024-03-06T09:39:25;7.90;99.90
4215;DHT22;2121;48.062;7.850;2024-03-06T09:41:51;8.20;99.90
4215;DHT22;2121;48.062;7.850;2024-03-06T09:44:17;8.20;99.90
4215;DHT22;2121;48.062;7.850;2024-03-06T09:46:45;8.40;99.90
4215;DHT22;2121;48.062;7.850;2024-03-06T09:49:14;8.50;99.90
4215;DHT22;2121;48.062;7.850;2024-03-06T09:51:48;8.60;99.90
4215;DHT22;2121;48.062;7.850;2024-03-06T09:54:16;8.70;99.90
4215;DHT22;2121;48.062;7.850;2024-03-06T09:56:48;8.80;99.90
4215;DHT22;2121;48.062;7.850;2024-03-06T09:59:14;9.00;99.90
4215;DHT22;2121;48.062;7.850;2024-03-06T10:06:48;9.10;99.90
4215;DHT22;2121;48.062;7.850;2024-03-06T10:09:19;8.90;99.90
4215;DHT22;2121;48.062;7.850;2024-03-06T10:11:45;8.70;99.90
4215;DHT22;2121;48.062;7.850;2024-03-06T10:14:11;9.00;99.90
4215;DHT22;2121;48.062;7.850;2024-03-06T10:16:38;9.40;99.90
4215;DHT22;2121;48.062;7.850;2024-03-06T10:19:22;9.80;99.90
4215;DHT22;2121;48.062;7.850;2024-03-06T10:21:50;10.00;99.90
4215;DHT22;2121;48.062;7.850;2024-03-06T10:24:21;9.70;99.90
4215;DHT22;2121;48.062;7.850;2024-03-06T10:26:49;9.40;99.90
4215;DHT22;2121;48.062;7.850;2024-03-06T10:29:20;9.40;99.90
4215;DHT22;2121;48.062;7.850;2024-03-06T10:31:48;9.20;99.90
4215;DHT22;2121;48.062;7.850;2024-03-06T10:34:16;9.20;99.90
4215;DHT22;2121;48.062;7.850;2024-03-06T10:36:42;9.60;99.90
4215;DHT22;2121;48.062;7.850;2024-03-06T10:39:11;9.50;99.90
4215;DHT22;2121;48.062;7.850;2024-03-06T10:41:42;9.30;99.90
4215;DHT22;2121;48.062;7.850;2024-03-06T10:44:12;8.90;99.90
4215;DHT22;2121;48.062;7.850;2024-03-06T10:46:43;8.60;99.90
4215;DHT22;2121;48.062;7.850;2024-03-06T10:49:13;8.40;99.90
4215;DHT22;2121;48.062;7.850;2024-03-06T10:51:44;8.30;99.90
4215;DHT22;2121;48.062;7.850;2024-03-06T10:54:13;8.40;99.90
4215;DHT22;2121;48.062;7.850;2024-03-06T10:56:40;8.70;99.90
4215;DHT22;2121;48.062;7.850;2024-03-06T10:59:12;9.10;99.90
4215;DHT22;2121;48.062;7.850;2024-03-06T11:01:39;9.60;99.90
4215;DHT22;2121;48.062;7.850;2024-03-06T11:04:06;9.90;99.90
4215;DHT22;2121;48.062;7.850;2024-03-06T11:06:33;9.90;99.90
4215;DHT22;2121;48.062;7.850;2024-03-06T11:09:01;10.10;99.90
4215;DHT22;2121;48.062;7.850;2024-03-06T11:11:28;10.30;99.90
4215;DHT22;2121;48.062;7.850;2024-03-06T11:14:04;10.30;99.90
4215;DHT22;2121;48.062;7.850;2024-03-06T11:16:31;10.50;99.90
4215;DHT22;2121;48.062;7.850;2024-03-06T11:19:08;10.80;99.90
4215;DHT22;2121;48.062;7.850;2024-03-06T11:21:35;11.30;99.90
4215;DHT22;2121;48.062;7.850;2024-03-06T11:24:15;11.40;99.90
4215;DHT22;2121;48.062;7.850;2024-03-06T11:27:11;11.40;99.90
4215;DHT22;2121;48.062;7.850;2024-03-06T11:30:03;11.40;99.90
4215;DHT22;2121;48.062;7.850;2024-03-06T11:32:29;11.00;99.90
4215;DHT22;2121;48.062;7.850;2024-03-06T11:34:55;11.10;99.90
4215;DHT22;2121;48.062;7.850;2024-03-06T11:37:21;11.20;99.90
4215;DHT22;2121;48.062;7.850;2024-03-06T11:39:48;11.30;99.90
4215;DHT22;2121;48.062;7.850;2024-03-06T11:42:14;11.60;99.90
4215;DHT22;2121;48.062;7.850;2024-03-06T11:44:53;11.90;99.90
4215;DHT22;2121;48.062;7.850;2024-03-06T11:47:20;12.20;99.90
4215;DHT22;2121;48.062;7.850;2024-03-06T11:49:46;12.00;99.90
4215;DHT22;2121;48.062;7.850;2024-03-06T11:52:11;11.80;99.90
4215;DHT22;2121;48.062;7.850;2024-03-06T11:54:37;10.80;99.90
4215;DHT22;2121;48.062;7.850;2024-03-06T11:57:04;10.80;99.90
4215;DHT22;2121;48.062;7.850;2024-03-06T11:59:35;12.00;99.90
4215;DHT22;2121;48.062;7.850;2024-03-06T12:02:05;13.20;99.90
4215;DHT22;2121;48.062;7.850;2024-03-06T12:04:33;14.10;99.90
4215;DHT22;2121;48.062;7.850;2024-03-06T12:07:00;14.70;99.90
4215;DHT22;2121;48.062;7.850;2024-03-06T12:09:34;14.50;99.90
4215;DHT22;2121;48.062;7.850;2024-03-06T12:12:00;14.30;99.90
4215;DHT22;2121;48.062;7.850;2024-03-06T12:14:26;14.20;99.90
4215;DHT22;2121;48.062;7.850;2024-03-06T12:16:58;13.70;99.90
4215;DHT22;2121;48.062;7.850;2024-03-06T12:19:28;12.60;99.90
4215;DHT22;2121;48.062;7.850;2024-03-06T12:21:59;12.60;99.90
4215;DHT22;2121;48.062;7.850;2024-03-06T12:24:26;13.20;99.90
4215;DHT22;2121;48.062;7.850;2024-03-06T12:27:06;13.50;99.90
4215;DHT22;2121;48.062;7.850;2024-03-06T12:29:34;13.70;99.90
4215;DHT22;2121;48.062;7.850;2024-03-06T12:32:01;13.40;99.90
4215;DHT22;2121;48.062;7.850;2024-03-06T12:34:28;12.60;99.90
4215;DHT22;2121;48.062;7.850;2024-03-06T12:36:55;12.50;99.90
4215;DHT22;2121;48.062;7.850;2024-03-06T12:39:23;12.40;99.90
4215;DHT22;2121;48.062;7.850;2024-03-06T12:41:50;12.20;99.90
4215;DHT22;2121;48.062;7.850;2024-03-06T12:44:16;11.80;99.90
4215;DHT22;2121;48.062;7.850;2024-03-06T12:46:42;11.40;99.90
4215;DHT22;2121;48.062;7.850;2024-03-06T12:49:08;10.90;99.90
4215;DHT22;2121;48.062;7.850;2024-03-06T12:51:34;11.00;99.90
4215;DHT22;2121;48.062;7.850;2024-03-06T12:54:00;11.10;99.90
4215;DHT22;2121;48.062;7.850;2024-03-06T12:56:26;11.30;99.90
4215;DHT22;2121;48.062;7.850;2024-03-06T12:58:52;11.20;99.90
4215;DHT22;2121;48.062;7.850;2024-03-06T13:01:18;10.00;99.90
4215;DHT22;2121;48.062;7.850;2024-03-06T13:03:45;9.50;99.90
4215;DHT22;2121;48.062;7.850;2024-03-06T13:06:11;9.30;99.90
4215;DHT22;2121;48.062;7.850;2024-03-06T13:08:36;9.40;99.90
4215;DHT22;2121;48.062;7.850;2024-03-06T13:11:02;9.60;99.90
4215;DHT22;2121;48.062;7.850;2024-03-06T13:13:28;9.80;99.90
4215;DHT22;2121;48.062;7.850;2024-03-06T13:15:55;10.00;99.90
4215;DHT22;2121;48.062;7.850;2024-03-06T13:18:21;10.30;99.90
4215;DHT22;2121;48.062;7.850;2024-03-06T13:20:47;10.70;99.90
4215;DHT22;2121;48.062;7.850;2024-03-06T13:23:13;11.00;99.90
4215;DHT22;2121;48.062;7.850;2024-03-06T13:25:39;11.10;99.90
4215;DHT22;2121;48.062;7.850;2024-03-06T13:28:05;11.20;99.90
4215;DHT22;2121;48.062;7.850;2024-03-06T13:30:31;11.40;99.90
4215;DHT22;2121;48.062;7.850;2024-03-06T13:32:58;11.20;99.90
4215;DHT22;2121;48.062;7.850;2024-03-06T13:35:24;11.00;99.90
4215;DHT22;2121;48.062;7.850;2024-03-06T13:37:49;10.70;99.90
4215;DHT22;2121;48.062;7.850;2024-03-06T13:40:16;10.50;99.90
4215;DHT22;2121;48.062;7.850;2024-03-06T13:42:43;10.50;99.90
4215;DHT22;2121;48.062;7.850;2024-03-06T13:45:09;10.30;99.90
4215;DHT22;2121;48.062;7.850;2024-03-06T13:47:38;10.20;99.90
4215;DHT22;2121;48.062;7.850;2024-03-06T13:50:11;10.00;99.90
4215;DHT22;2121;48.062;7.850;2024-03-06T13:52:39;9.60;99.90
4215;DHT22;2121;48.062;7.850;2024-03-06T13:55:06;9.60;99.90
4215;DHT22;2121;48.062;7.850;2024-03-06T13:57:34;9.90;99.90
4215;DHT22;2121;48.062;7.850;2024-03-06T14:00:05;10.10;99.90
4215;DHT22;2121;48.062;7.850;2024-03-06T14:02:32;10.10;99.90
4215;DHT22;2121;48.062;7.850;2024-03-06T14:04:58;9.80;99.90
4215;DHT22;2121;48.062;7.850;2024-03-06T14:07:24;9.70;99.90
4215;DHT22;2121;48.062;7.850;2024-03-06T14:09:52;9.70;99.90
4215;DHT22;2121;48.062;7.850;2024-03-06T14:12:18;9.80;99.90
4215;DHT22;2121;48.062;7.850;2024-03-06T14:14:44;9.80;99.90
4215;DHT22;2121;48.062;7.850;2024-03-06T14:17:12;9.90;99.90
4215;DHT22;2121;48.062;7.850;2024-03-06T14:19:39;9.80;99.90
4215;DHT22;2121;48.062;7.850;2024-03-06T14:22:08;9.90;99.90
4215;DHT22;2121;48.062;7.850;2024-03-06T14:24:34;10.00;99.90
4215;DHT22;2121;48.062;7.850;2024-03-06T14:27:01;10.20;99.90
4215;DHT22;2121;48.062;7.850;2024-03-06T14:29:28;10.30;99.90
4215;DHT22;2121;48.062;7.850;2024-03-06T14:31:55;10.20;99.90
4215;DHT22;2121;48.062;7.850;2024-03-06T14:34:21;10.40;99.90
4215;DHT22;2121;48.062;7.850;2024-03-06T14:36:50;10.30;99.90
4215;DHT22;2121;48.062;7.850;2024-03-06T14:39:16;10.00;99.90
4215;DHT22;2121;48.062;7.850;2024-03-06T14:41:42;9.80;99.90
4215;DHT22;2121;48.062;7.850;2024-03-06T14:44:10;9.60;99.90
4215;DHT22;2121;48.062;7.850;2024-03-06T14:46:36;9.30;99.90
4215;DHT22;2121;48.062;7.850;2024-03-06T14:49:02;9.30;99.90
4215;DHT22;2121;48.062;7.850;2024-03-06T14:51:28;9.20;99.90
4215;DHT22;2121;48.062;7.850;2024-03-06T14:53:54;9.10;99.90
4215;DHT22;2121;48.062;7.850;2024-03-06T14:56:20;8.90;99.90
4215;DHT22;2121;48.062;7.850;2024-03-06T14:58:47;8.80;99.90
4215;DHT22;2121;48.062;7.850;2024-03-06T15:01:13;8.60;99.90
4215;DHT22;2121;48.062;7.850;2024-03-06T15:03:42;8.60;99.90
4215;DHT22;2121;48.062;7.850;2024-03-06T15:06:07;8.50;99.90
4215;DHT22;2121;48.062;7.850;2024-03-06T15:08:33;8.50;99.90
4215;DHT22;2121;48.062;7.850;2024-03-06T15:11:02;8.50;99.90
4215;DHT22;2121;48.062;7.850;2024-03-06T15:13:28;8.40;99.90
4215;DHT22;2121;48.062;7.850;2024-03-06T15:15:54;8.40;99.90
4215;DHT22;2121;48.062;7.850;2024-03-06T15:18:20;8.40;99.90
4215;DHT22;2121;48.062;7.850;2024-03-06T15:20:46;8.30;99.90
4215;DHT22;2121;48.062;7.850;2024-03-06T15:23:12;8.30;99.90
4215;DHT22;2121;48.062;7.850;2024-03-06T15:25:38;8.20;99.90
4215;DHT22;2121;48.062;7.850;2024-03-06T15:28:04;8.10;99.90
4215;DHT22;2121;48.062;7.850;2024-03-06T15:30:29;8.10;99.90
4215;DHT22;2121;48.062;7.850;2024-03-06T15:32:57;8.00;99.90
4215;DHT22;2121;48.062;7.850;2024-03-06T15:35:23;7.90;99.90
4215;DHT22;2121;48.062;7.850;2024-03-06T15:37:49;7.80;99.90
4215;DHT22;2121;48.062;7.850;2024-03-06T15:40:16;7.80;99.90
4215;DHT22;2121;48.062;7.850;2024-03-06T15:42:42;7.80;99.90
4215;DHT22;2121;48.062;7.850;2024-03-06T15:45:09;7.70;99.90
4215;DHT22;2121;48.062;7.850;2024-03-06T15:47:36;7.70;99.90
4215;DHT22;2121;48.062;7.850;2024-03-06T15:50:03;7.70;99.90
4215;DHT22;2121;48.062;7.850;2024-03-06T15:52:36;7.60;99.90
4215;DHT22;2121;48.062;7.850;2024-03-06T15:55:04;7.80;99.90
4215;DHT22;2121;48.062;7.850;2024-03-06T15:57:36;7.70;99.90
4215;DHT22;2121;48.062;7.850;2024-03-06T16:00:07;7.70;99.90
4215;DHT22;2121;48.062;7.850;2024-03-06T16:02:42;7.60;99.90
4215;DHT22;2121;48.062;7.850;2024-03-06T16:05:09;7.60;99.90
4215;DHT22;2121;48.062;7.850;2024-03-06T16:07:34;7.60;99.90
4215;DHT22;2121;48.062;7.850;2024-03-06T16:10:00;7.60;99.90
4215;DHT22;2121;48.062;7.850;2024-03-06T16:12:26;7.70;99.90
4215;DHT22;2121;48.062;7.850;2024-03-06T16:14:51;7.60;99.90
4215;DHT22;2121;48.062;7.850;2024-03-06T16:17:18;7.50;99.90
4215;DHT22;2121;48.062;7.850;2024-03-06T16:19:44;7.50;99.90